createdAt,value
2023-04-02T00:01:19.300Z,12.65
2023-04-02T00:04:26.514Z,12.92
2023-04-02T00:07:33.669Z,13.11
2023-04-02T00:10:39.635Z,13.12
2023-04-02T00:13:44.569Z,11.86
2023-04-02T00:16:46.492Z,11.85
2023-04-02T00:19:58.696Z,11.40
2023-04-02T00:23:00.887Z,11.38
2023-04-02T00:26:02.900Z,11.69
2023-04-02T00:29:05.587Z,11.59
2023-04-02T00:32:09.835Z,11.95
2023-04-02T00:35:19.617Z,12.34
2023-04-02T00:38:23.319Z,12.39
2023-04-02T00:41:27.379Z,12.15
2023-04-02T00:44:29.282Z,12.76
2023-04-02T00:47:32.014Z,12.45
2023-04-02T00:50:34.900Z,11.83
2023-04-02T00:53:36.821Z,11.88
2023-04-02T00:56:48.921Z,11.62
2023-04-02T01:00:03.132Z,12.19
2023-04-02T01:03:16.501Z,11.72
2023-04-02T01:06:18.976Z,12.82
2023-04-02T01:09:30.472Z,12.45
2023-04-02T01:12:35.531Z,12.42
2023-04-02T01:15:38.856Z,12.41
2023-04-02T01:18:56.741Z,13.05
2023-04-02T01:22:01.479Z,12.66
2023-04-02T01:25:05.075Z,12.44
2023-04-02T01:28:08.496Z,12.74
2023-04-02T01:31:10.727Z,12.51
2023-04-02T01:34:14.200Z,11.60
2023-04-02T01:37:44.964Z,12.25
2023-04-02T01:40:52.233Z,12.67
2023-04-02T01:43:56.011Z,11.56
2023-04-02T01:47:00.827Z,11.88
2023-04-02T01:50:05.623Z,12.43
2023-04-02T01:53:09.312Z,11.63
2023-04-02T01:56:11.288Z,11.63
2023-04-02T01:59:13.478Z,11.41
2023-04-02T02:02:15.463Z,11.92
2023-04-02T02:05:18.731Z,11.65
2023-04-02T02:08:31.836Z,11.92
2023-04-02T02:11:33.812Z,11.55
2023-04-02T02:14:35.794Z,12.11
2023-04-02T02:17:38.196Z,11.82
2023-04-02T02:20:40.351Z,11.68
2023-04-02T02:23:42.233Z,11.33
2023-04-02T02:26:44.165Z,12.01
2023-04-02T02:29:46.000Z,11.96
2023-04-02T02:33:08.727Z,12.36
2023-04-02T02:36:23.436Z,11.74
2023-04-02T02:39:26.039Z,11.83
2023-04-02T02:42:32.377Z,12.41
2023-04-02T02:45:36.070Z,12.47
2023-04-02T02:48:38.431Z,12.34
2023-04-02T02:51:42.839Z,12.55
2023-04-02T02:54:47.269Z,12.19
2023-04-02T02:57:52.555Z,12.46
2023-04-02T03:00:54.425Z,12.18
2023-04-02T03:03:56.579Z,12.08
2023-04-02T03:06:58.531Z,11.72
2023-04-02T03:10:12.672Z,12.65
2023-04-02T03:13:14.475Z,12.77
2023-04-02T03:16:16.357Z,12.46
2023-04-02T03:19:27.581Z,12.09
2023-04-02T03:22:32.149Z,11.91
2023-04-02T03:25:41.829Z,12.05
2023-04-02T03:28:44.226Z,12.08
2023-04-02T03:31:50.572Z,12.33
2023-04-02T03:34:56.791Z,11.52
2023-04-02T03:38:06.543Z,11.20
2023-04-02T03:41:21.034Z,11.77
2023-04-02T03:44:33.123Z,11.32
2023-04-02T03:47:55.373Z,11.34
2023-04-02T03:51:01.050Z,11.52
2023-04-02T03:54:03.100Z,11.44
2023-04-02T03:57:05.715Z,10.89
2023-04-02T04:00:37.244Z,10.87
2023-04-02T04:03:43.006Z,11.39
2023-04-02T04:06:45.387Z,10.83
2023-04-02T04:09:47.492Z,11.20
2023-04-02T04:12:49.310Z,10.74
2023-04-02T04:16:10.495Z,10.72
2023-04-02T04:19:18.159Z,10.85
2023-04-02T04:22:30.584Z,11.28
2023-04-02T04:25:37.335Z,11.02
2023-04-02T04:29:00.175Z,11.08
2023-04-02T04:32:11.076Z,11.08
2023-04-02T04:35:15.793Z,11.17
2023-04-02T04:38:22.174Z,10.64
2023-04-02T04:41:25.072Z,10.95
2023-04-02T04:44:50.402Z,11.78
2023-04-02T04:47:55.110Z,11.48
2023-04-02T04:51:01.036Z,11.42
2023-04-02T04:54:02.909Z,10.99
2023-04-02T04:57:04.770Z,11.37
2023-04-02T05:00:13.015Z,11.11
2023-04-02T05:03:25.973Z,11.18
2023-04-02T05:06:30.827Z,10.95
2023-04-02T05:09:35.040Z,11.58
2023-04-02T05:12:51.530Z,11.43
2023-04-02T05:16:14.740Z,11.48
2023-04-02T05:19:29.808Z,11.99
2023-04-02T05:22:35.300Z,12.48
2023-04-02T05:25:37.324Z,13.49
2023-04-02T05:28:45.513Z,13.80
2023-04-02T05:32:10.711Z,13.31
2023-04-02T05:35:19.199Z,14.08
2023-04-02T05:38:22.605Z,14.57
2023-04-02T05:41:27.118Z,14.94
2023-04-02T05:44:32.928Z,15.51
2023-04-02T05:47:40.883Z,14.65
2023-04-02T05:50:43.940Z,15.30
2023-04-02T05:53:50.776Z,15.24
2023-04-02T05:56:55.244Z,15.58
2023-04-02T05:59:57.842Z,15.44
2023-04-02T06:03:01.129Z,15.59
2023-04-02T06:06:04.322Z,14.66
2023-04-02T06:09:08.763Z,14.79
2023-04-02T06:12:12.771Z,14.29
2023-04-02T06:15:15.605Z,15.64
2023-04-02T06:18:22.259Z,15.81
2023-04-02T06:21:24.209Z,16.50
2023-04-02T06:24:26.067Z,17.54
2023-04-02T06:27:28.074Z,17.18
2023-04-02T06:30:33.983Z,17.30
2023-04-02T06:33:36.530Z,17.17
2023-04-02T06:36:38.419Z,17.27
2023-04-02T06:39:40.583Z,18.85
2023-04-02T06:42:42.558Z,19.25
2023-04-02T06:45:44.470Z,20.07
2023-04-02T06:48:46.482Z,18.78
2023-04-02T06:51:48.370Z,16.56
2023-04-02T06:54:50.384Z,16.76
2023-04-02T06:57:52.359Z,16.69
2023-04-02T07:00:54.328Z,16.88
2023-04-02T07:03:56.538Z,16.20
2023-04-02T07:06:58.507Z,17.48
2023-04-02T07:10:00.471Z,17.53
2023-04-02T07:13:02.607Z,19.59
2023-04-02T07:16:04.807Z,21.97
2023-04-02T07:19:07.079Z,21.86
2023-04-02T07:22:09.079Z,20.09
2023-04-02T07:25:11.005Z,18.07
2023-04-02T07:28:14.163Z,17.41
2023-04-02T07:31:17.780Z,17.58
2023-04-02T07:34:19.942Z,17.78
2023-04-02T07:37:21.809Z,17.13
2023-04-02T07:40:24.376Z,17.28
2023-04-02T07:43:26.540Z,17.66
2023-04-02T07:46:30.816Z,17.44
2023-04-02T07:49:32.868Z,15.93
2023-04-02T07:52:40.444Z,16.71
2023-04-02T07:55:42.781Z,16.55
2023-04-02T07:58:44.713Z,17.51
2023-04-02T08:01:46.651Z,18.39
2023-04-02T08:04:51.861Z,18.51
2023-04-02T08:07:54.833Z,18.27
2023-04-02T08:10:56.791Z,17.49
2023-04-02T08:13:58.811Z,16.64
2023-04-02T08:17:01.083Z,16.99
2023-04-02T08:20:04.249Z,18.59
2023-04-02T08:23:13.548Z,18.41
2023-04-02T08:26:18.923Z,18.04
2023-04-02T08:29:21.314Z,16.95
2023-04-02T08:32:24.170Z,17.40
2023-04-02T08:35:26.569Z,18.97
2023-04-02T08:38:28.834Z,19.98
2023-04-02T08:41:32.442Z,20.08
2023-04-02T08:44:53.175Z,20.39
2023-04-02T08:47:56.266Z,19.41
2023-04-02T08:50:58.993Z,22.09
2023-04-02T08:54:08.969Z,23.90
2023-04-02T08:57:11.255Z,21.94
2023-04-02T09:00:31.679Z,23.37
2023-04-02T09:03:39.010Z,24.50
2023-04-02T09:06:41.216Z,22.97
2023-04-02T09:09:43.296Z,22.62
2023-04-02T09:12:47.213Z,20.78
2023-04-02T09:15:49.341Z,20.85
2023-04-02T09:18:51.624Z,20.77
2023-04-02T09:21:57.059Z,20.77
2023-04-02T09:25:00.856Z,20.36
2023-04-02T09:28:04.254Z,19.32
2023-04-02T09:31:12.608Z,19.19
2023-04-02T09:34:28.779Z,19.60
2023-04-02T09:37:30.654Z,19.77
2023-04-02T09:40:33.898Z,18.20
2023-04-02T09:43:36.961Z,19.38
2023-04-02T09:46:46.941Z,17.26
2023-04-02T09:49:49.162Z,18.09
2023-04-02T09:52:51.425Z,18.12
2023-04-02T09:56:12.347Z,16.49
2023-04-02T09:59:18.001Z,17.77
2023-04-02T10:02:27.466Z,17.38
2023-04-02T10:05:40.047Z,17.49
2023-04-02T10:08:44.071Z,17.35
2023-04-02T10:11:46.959Z,17.96
2023-04-02T10:14:49.348Z,17.97
2023-04-02T10:17:55.880Z,18.40
2023-04-02T10:20:57.924Z,18.03
2023-04-02T10:23:59.932Z,18.36
2023-04-02T10:27:09.869Z,17.50
2023-04-02T10:30:12.368Z,17.53
2023-04-02T10:33:53.137Z,17.94
2023-04-02T10:36:55.582Z,17.90
2023-04-02T10:40:01.334Z,18.72
2023-04-02T10:43:23.564Z,19.49
2023-04-02T10:46:54.939Z,20.99
2023-04-02T10:50:03.613Z,21.46
2023-04-02T10:53:15.186Z,21.50
2023-04-02T10:56:17.431Z,20.52
2023-04-02T10:59:30.455Z,21.64
2023-04-02T11:02:34.779Z,22.40
2023-04-02T11:05:44.487Z,22.29
2023-04-02T11:08:47.164Z,22.12
2023-04-02T11:11:49.592Z,22.16
2023-04-02T11:14:51.852Z,20.65
2023-04-02T11:17:54.662Z,20.89
2023-04-02T11:20:58.506Z,21.31
2023-04-02T11:24:01.265Z,22.70
2023-04-02T11:27:14.739Z,21.67
2023-04-02T11:30:18.130Z,21.10
2023-04-02T11:33:42.050Z,20.44
2023-04-02T11:36:55.260Z,20.65
2023-04-02T11:39:59.291Z,21.47
2023-04-02T11:43:21.293Z,24.06
2023-04-02T11:46:29.576Z,21.27
2023-04-02T11:49:39.874Z,20.66
2023-04-02T11:52:45.123Z,20.37
2023-04-02T11:55:48.187Z,20.24
2023-04-02T11:58:50.101Z,19.04
2023-04-02T12:01:54.757Z,22.13
2023-04-02T12:04:56.736Z,21.31
2023-04-02T12:08:25.032Z,22.00
2023-04-02T12:11:33.535Z,22.82
2023-04-02T12:14:38.446Z,24.97
2023-04-02T12:17:40.411Z,25.48
2023-04-02T12:20:47.310Z,26.30
2023-04-02T12:23:49.545Z,23.59
2023-04-02T12:27:15.552Z,25.19
2023-04-02T12:30:18.728Z,24.25
2023-04-02T12:33:21.064Z,26.94
2023-04-02T12:36:23.696Z,25.67
2023-04-02T12:39:28.122Z,22.86
2023-04-02T12:42:37.221Z,24.03
2023-04-02T12:45:39.130Z,23.42
2023-04-02T12:48:41.092Z,22.08
2023-04-02T12:51:43.102Z,22.64
2023-04-02T12:54:54.206Z,23.31
2023-04-02T12:57:56.868Z,21.63
2023-04-02T13:01:14.282Z,24.17
2023-04-02T13:04:16.616Z,26.30
2023-04-02T13:07:19.251Z,24.36
2023-04-02T13:10:23.542Z,22.87
2023-04-02T13:13:27.968Z,26.21
2023-04-02T13:16:33.931Z,25.21
2023-04-02T13:19:36.054Z,25.69
2023-04-02T13:22:37.902Z,25.46
2023-04-02T13:25:39.842Z,22.79
2023-04-02T13:28:41.770Z,21.18
2023-04-02T13:31:43.880Z,20.77
2023-04-02T13:34:45.879Z,19.84
2023-04-02T13:37:47.972Z,19.01
2023-04-02T13:40:49.839Z,19.41
2023-04-02T13:43:52.146Z,18.26
2023-04-02T13:46:54.895Z,18.02
2023-04-02T13:49:56.764Z,19.42
2023-04-02T13:52:59.229Z,19.03
2023-04-02T13:56:01.907Z,19.47
2023-04-02T13:59:04.171Z,19.56
2023-04-02T14:02:24.837Z,18.64
2023-04-02T14:05:39.076Z,19.09
2023-04-02T14:08:44.057Z,19.05
2023-04-02T14:12:01.411Z,19.26
2023-04-02T14:15:22.184Z,19.06
2023-04-02T14:18:30.654Z,18.92
2023-04-02T14:21:32.557Z,18.90
2023-04-02T14:24:38.401Z,18.86
2023-04-02T14:27:43.093Z,18.47
2023-04-02T14:30:54.068Z,18.60
2023-04-02T14:33:55.939Z,19.04
2023-04-02T14:37:00.763Z,19.15
2023-04-02T14:40:09.011Z,18.30
2023-04-02T14:43:12.310Z,18.46
2023-04-02T14:46:14.265Z,18.01
2023-04-02T14:49:19.218Z,16.97
2023-04-02T14:52:21.682Z,16.98
2023-04-02T14:55:26.931Z,17.28
2023-04-02T14:58:33.723Z,16.06
2023-04-02T15:01:37.393Z,15.04
2023-04-02T15:04:43.418Z,14.88
2023-04-02T15:07:47.349Z,15.23
2023-04-02T15:10:55.119Z,14.67
2023-04-02T15:14:06.246Z,14.95
2023-04-02T15:17:10.830Z,13.98
2023-04-02T15:20:14.016Z,14.42
2023-04-02T15:23:23.326Z,13.42
2023-04-02T15:26:26.468Z,13.51
2023-04-02T15:29:37.725Z,12.85
2023-04-02T15:32:40.132Z,13.00
2023-04-02T15:35:47.313Z,13.11
2023-04-02T15:38:50.952Z,13.77
2023-04-02T15:42:22.698Z,13.80
2023-04-02T15:45:27.967Z,13.74
2023-04-02T15:48:33.180Z,14.13
2023-04-02T15:52:05.477Z,13.88
2023-04-02T15:55:10.700Z,14.93
2023-04-02T15:58:16.216Z,15.36
2023-04-02T16:01:23.099Z,15.41
2023-04-02T16:04:43.939Z,15.74
2023-04-02T16:08:21.869Z,16.04
2023-04-02T16:11:24.062Z,15.22
2023-04-02T16:14:32.200Z,15.91
2023-04-02T16:17:36.642Z,15.87
2023-04-02T16:20:40.021Z,14.94
2023-04-02T16:23:42.554Z,15.86
2023-04-02T16:26:44.473Z,15.43
2023-04-02T16:30:05.134Z,15.59
2023-04-02T16:33:13.029Z,15.87
2023-04-02T16:36:24.208Z,15.11
2023-04-02T16:39:29.187Z,15.82
2023-04-02T16:42:36.473Z,16.38
2023-04-02T16:45:47.844Z,15.91
2023-04-02T16:48:51.548Z,15.65
2023-04-02T16:52:00.422Z,15.12
2023-04-02T16:55:15.592Z,14.49
2023-04-02T16:58:32.936Z,14.07
2023-04-02T17:01:38.548Z,14.01
2023-04-02T17:04:59.004Z,15.17
2023-04-02T17:08:19.517Z,15.10
2023-04-02T17:11:25.092Z,14.02
2023-04-02T17:14:28.497Z,15.28
2023-04-02T17:17:31.609Z,14.36
2023-04-02T17:20:33.615Z,13.60
2023-04-02T17:23:56.392Z,13.98
2023-04-02T17:27:17.647Z,13.77
2023-04-02T17:30:22.011Z,14.11
2023-04-02T17:33:26.932Z,14.11
2023-04-02T17:36:35.355Z,13.18
2023-04-02T17:39:42.004Z,12.97
2023-04-02T17:42:47.029Z,12.76
2023-04-02T17:45:52.977Z,12.88
2023-04-02T17:48:58.490Z,13.06
2023-04-02T17:52:01.276Z,13.87
2023-04-02T17:55:18.313Z,13.99
2023-04-02T17:58:26.445Z,12.92
2023-04-02T18:01:34.746Z,12.92
2023-04-02T18:04:55.670Z,12.13
2023-04-02T18:08:03.824Z,12.05
2023-04-02T18:11:24.536Z,12.14
2023-04-02T18:14:35.736Z,12.27
2023-04-02T18:17:40.936Z,12.39
2023-04-02T18:20:48.176Z,12.66
2023-04-02T18:23:56.297Z,12.25
2023-04-02T18:27:06.101Z,12.57
2023-04-02T18:30:34.154Z,12.28
2023-04-02T18:33:40.934Z,11.89
2023-04-02T18:36:42.972Z,11.21
2023-04-02T18:39:53.847Z,11.24
2023-04-02T18:42:58.952Z,10.99
2023-04-02T18:46:19.578Z,11.49
2023-04-02T18:49:29.254Z,10.81
2023-04-02T18:52:31.372Z,10.63
2023-04-02T18:55:33.335Z,10.85
2023-04-02T18:58:42.821Z,11.04
2023-04-02T19:01:46.546Z,11.05
2023-04-02T19:05:13.637Z,10.57
2023-04-02T19:08:15.512Z,10.85
2023-04-02T19:11:18.552Z,10.34
2023-04-02T19:14:21.353Z,10.73
2023-04-02T19:17:26.265Z,10.26
2023-04-02T19:20:50.407Z,10.73
2023-04-02T19:23:58.476Z,10.64
2023-04-02T19:27:00.559Z,10.81
2023-04-02T19:30:20.643Z,10.39
2023-04-02T19:33:33.822Z,10.69
2023-04-02T19:36:41.017Z,10.68
2023-04-02T19:40:03.234Z,10.55
2023-04-02T19:43:06.484Z,9.92
2023-04-02T19:46:08.433Z,10.76
2023-04-02T19:49:13.322Z,10.91
2023-04-02T19:52:15.497Z,10.68
2023-04-02T19:55:17.404Z,10.53
2023-04-02T19:58:25.488Z,10.13
2023-04-02T20:01:27.496Z,9.77
2023-04-02T20:04:29.356Z,10.02
2023-04-02T20:07:31.575Z,9.81
2023-04-02T20:10:33.442Z,9.66
2023-04-02T20:13:35.490Z,10.03
2023-04-02T20:16:38.708Z,10.56
2023-04-02T20:19:40.805Z,9.68
2023-04-02T20:22:42.673Z,9.68
2023-04-02T20:25:45.684Z,9.95
2023-04-02T20:28:47.564Z,9.99
2023-04-02T20:31:49.429Z,10.17
2023-04-02T20:34:51.371Z,9.89
2023-04-02T20:37:53.533Z,10.00
2023-04-02T20:40:55.613Z,10.64
2023-04-02T20:43:57.620Z,10.69
2023-04-02T20:46:59.527Z,9.75
2023-04-02T20:50:01.632Z,9.99
2023-04-02T20:53:03.507Z,9.58
2023-04-02T20:56:10.134Z,9.35
2023-04-02T20:59:12.064Z,10.61
2023-04-02T21:02:13.929Z,10.14
2023-04-02T21:05:16.086Z,9.29
2023-04-02T21:08:18.367Z,10.25
2023-04-02T21:11:21.987Z,10.39
2023-04-02T21:14:24.120Z,10.02
2023-04-02T21:17:26.134Z,9.54
2023-04-02T21:20:28.074Z,9.76
2023-04-02T21:23:30.360Z,8.87
2023-04-02T21:26:34.810Z,9.49
2023-04-02T21:29:36.920Z,9.11
2023-04-02T21:32:38.825Z,9.83
2023-04-02T21:35:40.832Z,9.23
2023-04-02T21:38:46.675Z,9.71
2023-04-02T21:41:51.984Z,10.09
2023-04-02T21:44:53.919Z,10.32
2023-04-02T21:47:55.880Z,9.93
2023-04-02T21:51:04.872Z,9.65
2023-04-02T21:54:06.769Z,9.05
2023-04-02T21:57:08.813Z,8.92
2023-04-02T22:00:12.436Z,8.68
2023-04-02T22:03:24.945Z,9.43
2023-04-02T22:06:31.779Z,9.23
2023-04-02T22:09:33.690Z,9.28
2023-04-02T22:12:35.524Z,9.16
2023-04-02T22:15:37.429Z,9.23
2023-04-02T22:18:39.409Z,9.17
2023-04-02T22:21:41.683Z,9.14
2023-04-02T22:24:43.566Z,9.80
2023-04-02T22:27:45.433Z,9.30
2023-04-02T22:30:47.441Z,10.13
2023-04-02T22:33:50.392Z,9.67
2023-04-02T22:36:53.073Z,9.35
2023-04-02T22:39:55.371Z,9.82
2023-04-02T22:42:57.231Z,9.20
2023-04-02T22:45:59.241Z,9.07
2023-04-02T22:49:01.081Z,9.36
2023-04-02T22:52:05.831Z,9.64
2023-04-02T22:55:08.327Z,8.53
2023-04-02T22:58:10.242Z,8.77
2023-04-02T23:01:12.306Z,8.82
2023-04-02T23:04:14.219Z,8.86
2023-04-02T23:07:16.303Z,9.00
2023-04-02T23:10:18.207Z,8.83
2023-04-02T23:13:20.540Z,8.58
2023-04-02T23:16:23.023Z,8.49
2023-04-02T23:19:25.227Z,8.65
2023-04-02T23:22:27.164Z,8.75
2023-04-02T23:25:29.077Z,9.36
2023-04-02T23:28:31.181Z,8.77
2023-04-02T23:31:33.062Z,8.66
2023-04-02T23:34:35.070Z,8.88
2023-04-02T23:37:36.931Z,8.34
2023-04-02T23:40:38.857Z,8.57
2023-04-02T23:43:40.920Z,8.38
2023-04-02T23:46:42.871Z,8.81
2023-04-02T23:49:47.889Z,9.49
2023-04-02T23:52:50.219Z,8.53
2023-04-02T23:55:52.104Z,8.42
2023-04-02T23:58:53.970Z,8.17
